sensor_id;sensor_type;location;lat;lon;timestamp;temperature;humidity
8888;DHT22;4480;52.370;9.748;2023-02-10T00:01:42;3.60;99.90
8888;DHT22;4480;52.370;9.748;2023-02-10T00:04:11;3.60;99.90
8888;DHT22;4480;52.370;9.748;2023-02-10T00:06:38;3.50;99.90
8888;DHT22;4480;52.370;9.748;2023-02-10T00:09:06;3.50;99.90
8888;DHT22;4480;52.370;9.748;2023-02-10T00:11:33;3.40;99.90
8888;DHT22;4480;52.370;9.748;2023-02-10T00:14:18;3.40;99.90
8888;DHT22;4480;52.370;9.748;2023-02-10T00:16:49;3.40;99.90
8888;DHT22;4480;52.370;9.748;2023-02-10T00:19:16;3.40;99.90
8888;DHT22;4480;52.370;9.748;2023-02-10T00:21:43;3.30;99.90
8888;DHT22;4480;52.370;9.748;2023-02-10T00:24:09;3.30;99.90
8888;DHT22;4480;52.370;9.748;2023-02-10T00:26:36;3.30;99.90
8888;DHT22;4480;52.370;9.748;2023-02-10T00:29:03;3.30;99.90
8888;DHT22;4480;52.370;9.748;2023-02-10T00:31:30;3.30;99.90
8888;DHT22;4480;52.370;9.748;2023-02-10T00:33:58;3.30;99.90
8888;DHT22;4480;52.370;9.748;2023-02-10T00:36:25;3.30;99.90
8888;DHT22;4480;52.370;9.748;2023-02-10T00:38:52;3.30;99.90
8888;DHT22;4480;52.370;9.748;2023-02-10T00:41:20;3.30;99.90
8888;DHT22;4480;52.370;9.748;2023-02-10T00:43:47;3.30;99.90
8888;DHT22;4480;52.370;9.748;2023-02-10T00:46:16;3.30;99.90
8888;DHT22;4480;52.370;9.748;2023-02-10T00:48:44;3.30;99.90
8888;DHT22;4480;52.370;9.748;2023-02-10T00:51:12;3.20;99.90
8888;DHT22;4480;52.370;9.748;2023-02-10T00:53:39;3.20;99.90
8888;DHT22;4480;52.370;9.748;2023-02-10T00:56:07;3.30;99.90
8888;DHT22;4480;52.370;9.748;2023-02-10T00:58:33;3.30;99.90
8888;DHT22;4480;52.370;9.748;2023-02-10T01:01:00;3.20;99.90
8888;DHT22;4480;52.370;9.748;2023-02-10T01:03:27;3.30;99.90
8888;DHT22;4480;52.370;9.748;2023-02-10T01:05:54;3.20;99.90
8888;DHT22;4480;52.370;9.748;2023-02-10T01:08:22;3.20;99.90
8888;DHT22;4480;52.370;9.748;2023-02-10T01:10:49;3.20;99.90
8888;DHT22;4480;52.370;9.748;2023-02-10T01:13:16;3.20;99.90
8888;DHT22;4480;52.370;9.748;2023-02-10T01:15:43;3.20;99.90
8888;DHT22;4480;52.370;9.748;2023-02-10T01:18:11;3.20;99.90
8888;DHT22;4480;52.370;9.748;2023-02-10T01:20:39;3.30;99.90
8888;DHT22;4480;52.370;9.748;2023-02-10T01:23:06;3.20;99.90
8888;DHT22;4480;52.370;9.748;2023-02-10T01:25:35;3.20;99.90
8888;DHT22;4480;52.370;9.748;2023-02-10T01:28:03;3.30;99.90
8888;DHT22;4480;52.370;9.748;2023-02-10T01:30:30;3.30;99.90
8888;DHT22;4480;52.370;9.748;2023-02-10T01:32:57;3.30;99.90
8888;DHT22;4480;52.370;9.748;2023-02-10T01:35:24;3.30;99.90
8888;DHT22;4480;52.370;9.748;2023-02-10T01:37:51;3.30;99.90
8888;DHT22;4480;52.370;9.748;2023-02-10T01:40:18;3.30;99.90
8888;DHT22;4480;52.370;9.748;2023-02-10T01:42:46;3.30;99.90
8888;DHT22;4480;52.370;9.748;2023-02-10T01:45:17;3.30;99.90
8888;DHT22;4480;52.370;9.748;2023-02-10T01:47:45;3.30;99.90
8888;DHT22;4480;52.370;9.748;2023-02-10T01:50:13;3.30;99.90
8888;DHT22;4480;52.370;9.748;2023-02-10T01:52:42;3.30;99.90
8888;DHT22;4480;52.370;9.748;2023-02-10T01:55:12;3.30;99.90
8888;DHT22;4480;52.370;9.748;2023-02-10T01:57:42;3.30;99.90
8888;DHT22;4480;52.370;9.748;2023-02-10T02:00:13;3.20;99.90
8888;DHT22;4480;52.370;9.748;2023-02-10T02:02:41;3.10;99.90
8888;DHT22;4480;52.370;9.748;2023-02-10T02:05:28;3.10;99.90
8888;DHT22;4480;52.370;9.748;2023-02-10T02:07:58;3.00;99.90
8888;DHT22;4480;52.370;9.748;2023-02-10T02:10:49;2.90;99.90
8888;DHT22;4480;52.370;9.748;2023-02-10T02:13:24;3.00;99.90
8888;DHT22;4480;52.370;9.748;2023-02-10T02:15:59;3.00;99.90
8888;DHT22;4480;52.370;9.748;2023-02-10T02:18:34;3.00;99.90
8888;DHT22;4480;52.370;9.748;2023-02-10T02:21:18;3.10;99.90
8888;DHT22;4480;52.370;9.748;2023-02-10T02:24:17;3.10;99.90
8888;DHT22;4480;52.370;9.748;2023-02-10T02:26:56;3.20;99.90
8888;DHT22;4480;52.370;9.748;2023-02-10T02:29:39;3.20;99.90
8888;DHT22;4480;52.370;9.748;2023-02-10T02:32:14;3.20;99.90
8888;DHT22;4480;52.370;9.748;2023-02-10T02:34:48;3.20;99.90
8888;DHT22;4480;52.370;9.748;2023-02-10T02:37:18;3.30;99.90
8888;DHT22;4480;52.370;9.748;2023-02-10T02:39:48;3.30;99.90
8888;DHT22;4480;52.370;9.748;2023-02-10T02:42:20;3.30;99.90
8888;DHT22;4480;52.370;9.748;2023-02-10T02:44:50;3.30;99.90
8888;DHT22;4480;52.370;9.748;2023-02-10T02:47:31;3.40;99.90
8888;DHT22;4480;52.370;9.748;2023-02-10T02:50:10;3.40;99.90
8888;DHT22;4480;52.370;9.748;2023-02-10T02:52:46;3.40;99.90
8888;DHT22;4480;52.370;9.748;2023-02-10T02:55:22;3.40;99.90
8888;DHT22;4480;52.370;9.748;2023-02-10T02:57:54;3.40;99.90
8888;DHT22;4480;52.370;9.748;2023-02-10T03:00:25;3.40;99.90
8888;DHT22;4480;52.370;9.748;2023-02-10T03:02:55;3.40;99.90
8888;DHT22;4480;52.370;9.748;2023-02-10T03:05:27;3.40;99.90
8888;DHT22;4480;52.370;9.748;2023-02-10T03:07:54;3.50;99.90
8888;DHT22;4480;52.370;9.748;2023-02-10T03:10:21;3.50;99.90
8888;DHT22;4480;52.370;9.748;2023-02-10T03:12:48;3.50;99.90
8888;DHT22;4480;52.370;9.748;2023-02-10T03:15:16;3.50;99.90
8888;DHT22;4480;52.370;9.748;2023-02-10T03:17:43;3.60;99.90
8888;DHT22;4480;52.370;9.748;2023-02-10T03:20:11;3.60;99.90
8888;DHT22;4480;52.370;9.748;2023-02-10T03:22:38;3.60;99.90
8888;DHT22;4480;52.370;9.748;2023-02-10T03:25:05;3.60;99.90
8888;DHT22;4480;52.370;9.748;2023-02-10T03:27:32;3.60;99.90
8888;DHT22;4480;52.370;9.748;2023-02-10T03:29:59;3.60;99.90
8888;DHT22;4480;52.370;9.748;2023-02-10T03:32:26;3.60;99.90
8888;DHT22;4480;52.370;9.748;2023-02-10T03:34:53;3.60;99.90
8888;DHT22;4480;52.370;9.748;2023-02-10T03:37:21;3.60;99.90
8888;DHT22;4480;52.370;9.748;2023-02-10T03:39:48;3.60;99.90
8888;DHT22;4480;52.370;9.748;2023-02-10T03:42:14;3.60;99.90
8888;DHT22;4480;52.370;9.748;2023-02-10T03:44:41;3.60;99.90
8888;DHT22;4480;52.370;9.748;2023-02-10T03:47:08;3.70;99.90
8888;DHT22;4480;52.370;9.748;2023-02-10T03:49:35;3.60;99.90
8888;DHT22;4480;52.370;9.748;2023-02-10T03:52:02;3.60;99.90
8888;DHT22;4480;52.370;9.748;2023-02-10T03:54:30;3.70;99.90
8888;DHT22;4480;52.370;9.748;2023-02-10T03:56:56;3.70;99.90
8888;DHT22;4480;52.370;9.748;2023-02-10T03:59:23;3.70;99.90
8888;DHT22;4480;52.370;9.748;2023-02-10T04:01:50;3.70;99.90
8888;DHT22;4480;52.370;9.748;2023-02-10T04:04:17;3.70;99.90
8888;DHT22;4480;52.370;9.748;2023-02-10T04:06:44;3.70;99.90
8888;DHT22;4480;52.370;9.748;2023-02-10T04:11:06;3.80;99.90
8888;DHT22;4480;52.370;9.748;2023-02-10T04:13:34;3.80;99.90
8888;DHT22;4480;52.370;9.748;2023-02-10T04:16:02;3.80;99.90
8888;DHT22;4480;52.370;9.748;2023-02-10T04:18:30;3.80;99.90
8888;DHT22;4480;52.370;9.748;2023-02-10T04:20:57;3.80;99.90
8888;DHT22;4480;52.370;9.748;2023-02-10T04:23:25;3.80;99.90
8888;DHT22;4480;52.370;9.748;2023-02-10T04:25:55;3.90;99.90
8888;DHT22;4480;52.370;9.748;2023-02-10T04:28:24;3.90;99.90
8888;DHT22;4480;52.370;9.748;2023-02-10T04:30:51;3.90;99.90
8888;DHT22;4480;52.370;9.748;2023-02-10T04:33:18;3.90;99.90
8888;DHT22;4480;52.370;9.748;2023-02-10T04:35:46;3.90;99.90
8888;DHT22;4480;52.370;9.748;2023-02-10T04:38:14;3.90;99.90
8888;DHT22;4480;52.370;9.748;2023-02-10T04:40:41;3.90;99.90
8888;DHT22;4480;52.370;9.748;2023-02-10T04:43:08;3.90;99.90
8888;DHT22;4480;52.370;9.748;2023-02-10T04:45:37;3.90;99.90
8888;DHT22;4480;52.370;9.748;2023-02-10T04:48:04;3.90;99.90
8888;DHT22;4480;52.370;9.748;2023-02-10T04:50:30;3.90;99.90
8888;DHT22;4480;52.370;9.748;2023-02-10T04:52:57;3.90;99.90
8888;DHT22;4480;52.370;9.748;2023-02-10T04:55:24;4.00;99.90
8888;DHT22;4480;52.370;9.748;2023-02-10T04:57:51;3.90;99.90
8888;DHT22;4480;52.370;9.748;2023-02-10T05:00:18;3.90;99.90
8888;DHT22;4480;52.370;9.748;2023-02-10T05:02:47;3.90;99.90
8888;DHT22;4480;52.370;9.748;2023-02-10T05:05:13;3.90;99.90
8888;DHT22;4480;52.370;9.748;2023-02-10T05:07:40;3.90;99.90
8888;DHT22;4480;52.370;9.748;2023-02-10T05:10:07;3.90;99.90
8888;DHT22;4480;52.370;9.748;2023-02-10T05:12:34;3.90;99.90
8888;DHT22;4480;52.370;9.748;2023-02-10T05:15:01;3.80;99.90
8888;DHT22;4480;52.370;9.748;2023-02-10T05:17:28;3.80;99.90
8888;DHT22;4480;52.370;9.748;2023-02-10T05:19:56;3.80;99.90
8888;DHT22;4480;52.370;9.748;2023-02-10T05:22:23;3.80;99.90
8888;DHT22;4480;52.370;9.748;2023-02-10T05:24:54;3.80;99.90
8888;DHT22;4480;52.370;9.748;2023-02-10T05:27:22;3.80;99.90
8888;DHT22;4480;52.370;9.748;2023-02-10T05:29:49;3.70;99.90
8888;DHT22;4480;52.370;9.748;2023-02-10T05:32:15;3.70;99.90
8888;DHT22;4480;52.370;9.748;2023-02-10T05:34:42;3.60;99.90
8888;DHT22;4480;52.370;9.748;2023-02-10T05:37:10;3.50;99.90
8888;DHT22;4480;52.370;9.748;2023-02-10T05:39:37;3.50;99.90
8888;DHT22;4480;52.370;9.748;2023-02-10T05:42:05;3.40;99.90
8888;DHT22;4480;52.370;9.748;2023-02-10T05:44:32;3.40;99.90
8888;DHT22;4480;52.370;9.748;2023-02-10T05:46:59;3.40;99.90
8888;DHT22;4480;52.370;9.748;2023-02-10T05:49:26;3.30;99.90
8888;DHT22;4480;52.370;9.748;2023-02-10T05:51:52;3.30;99.90
8888;DHT22;4480;52.370;9.748;2023-02-10T05:54:21;3.30;99.90
8888;DHT22;4480;52.370;9.748;2023-02-10T05:56:48;3.30;99.90
8888;DHT22;4480;52.370;9.748;2023-02-10T05:59:16;3.20;99.90
8888;DHT22;4480;52.370;9.748;2023-02-10T06:01:43;3.30;99.90
8888;DHT22;4480;52.370;9.748;2023-02-10T06:04:10;3.30;99.90
8888;DHT22;4480;52.370;9.748;2023-02-10T06:06:37;3.30;99.90
8888;DHT22;4480;52.370;9.748;2023-02-10T06:09:04;3.30;99.90
8888;DHT22;4480;52.370;9.748;2023-02-10T06:11:33;3.20;99.90
8888;DHT22;4480;52.370;9.748;2023-02-10T06:13:59;3.20;99.90
8888;DHT22;4480;52.370;9.748;2023-02-10T06:16:26;3.20;99.90
8888;DHT22;4480;52.370;9.748;2023-02-10T06:18:53;3.10;99.90
8888;DHT22;4480;52.370;9.748;2023-02-10T06:21:21;3.10;99.90
8888;DHT22;4480;52.370;9.748;2023-02-10T06:23:48;3.00;99.90
8888;DHT22;4480;52.370;9.748;2023-02-10T06:26:15;3.00;99.90
8888;DHT22;4480;52.370;9.748;2023-02-10T06:28:43;2.90;99.90
8888;DHT22;4480;52.370;9.748;2023-02-10T06:31:10;2.90;99.90
8888;DHT22;4480;52.370;9.748;2023-02-10T06:33:37;2.80;99.90
8888;DHT22;4480;52.370;9.748;2023-02-10T06:36:05;2.80;99.90
8888;DHT22;4480;52.370;9.748;2023-02-10T06:38:33;2.80;99.90
8888;DHT22;4480;52.370;9.748;2023-02-10T06:41:00;2.70;99.90
8888;DHT22;4480;52.370;9.748;2023-02-10T06:43:27;2.70;99.90
8888;DHT22;4480;52.370;9.748;2023-02-10T06:45:55;2.70;99.90
8888;DHT22;4480;52.370;9.748;2023-02-10T06:48:22;2.60;99.90
8888;DHT22;4480;52.370;9.748;2023-02-10T06:50:49;2.60;99.90
8888;DHT22;4480;52.370;9.748;2023-02-10T06:53:15;2.60;99.90
8888;DHT22;4480;52.370;9.748;2023-02-10T06:55:42;2.60;99.90
8888;DHT22;4480;52.370;9.748;2023-02-10T06:58:10;2.60;99.90
8888;DHT22;4480;52.370;9.748;2023-02-10T07:00:37;2.60;99.90
8888;DHT22;4480;52.370;9.748;2023-02-10T07:03:06;2.60;99.90
8888;DHT22;4480;52.370;9.748;2023-02-10T07:05:33;2.60;99.90
8888;DHT22;4480;52.370;9.748;2023-02-10T07:08:01;2.60;99.90
8888;DHT22;4480;52.370;9.748;2023-02-10T07:10:29;2.70;99.90
8888;DHT22;4480;52.370;9.748;2023-02-10T07:12:55;2.70;99.90
8888;DHT22;4480;52.370;9.748;2023-02-10T07:15:22;2.80;99.90
8888;DHT22;4480;52.370;9.748;2023-02-10T07:17:49;2.90;99.90
8888;DHT22;4480;52.370;9.748;2023-02-10T07:20:18;2.90;99.90
8888;DHT22;4480;52.370;9.748;2023-02-10T07:22:45;3.00;99.90
8888;DHT22;4480;52.370;9.748;2023-02-10T07:25:12;3.10;99.90
8888;DHT22;4480;52.370;9.748;2023-02-10T07:27:40;3.10;99.90
8888;DHT22;4480;52.370;9.748;2023-02-10T07:30:07;3.20;99.90
8888;DHT22;4480;52.370;9.748;2023-02-10T07:32:34;3.20;99.90
8888;DHT22;4480;52.370;9.748;2023-02-10T07:35:01;3.20;99.90
8888;DHT22;4480;52.370;9.748;2023-02-10T07:37:29;3.20;99.90
8888;DHT22;4480;52.370;9.748;2023-02-10T07:39:57;3.20;99.90
8888;DHT22;4480;52.370;9.748;2023-02-10T07:42:24;3.30;99.90
8888;DHT22;4480;52.370;9.748;2023-02-10T07:44:51;3.30;99.90
8888;DHT22;4480;52.370;9.748;2023-02-10T07:47:17;3.30;99.90
8888;DHT22;4480;52.370;9.748;2023-02-10T07:49:44;3.40;99.90
8888;DHT22;4480;52.370;9.748;2023-02-10T07:52:11;3.40;99.90
8888;DHT22;4480;52.370;9.748;2023-02-10T07:54:39;3.40;99.90
8888;DHT22;4480;52.370;9.748;2023-02-10T07:57:06;3.50;99.90
8888;DHT22;4480;52.370;9.748;2023-02-10T07:59:33;3.50;99.90
8888;DHT22;4480;52.370;9.748;2023-02-10T08:02:00;3.60;99.90
8888;DHT22;4480;52.370;9.748;2023-02-10T08:04:27;3.70;99.90
8888;DHT22;4480;52.370;9.748;2023-02-10T08:06:56;3.70;99.90
8888;DHT22;4480;52.370;9.748;2023-02-10T08:09:23;3.80;99.90
8888;DHT22;4480;52.370;9.748;2023-02-10T08:11:51;3.90;99.90
8888;DHT22;4480;52.370;9.748;2023-02-10T08:14:18;3.90;99.90
8888;DHT22;4480;52.370;9.748;2023-02-10T08:16:44;4.00;99.90
8888;DHT22;4480;52.370;9.748;2023-02-10T08:19:12;4.00;99.90
8888;DHT22;4480;52.370;9.748;2023-02-10T08:21:39;4.00;99.90
8888;DHT22;4480;52.370;9.748;2023-02-10T08:24:07;4.00;99.90
8888;DHT22;4480;52.370;9.748;2023-02-10T08:26:34;3.90;99.90
8888;DHT22;4480;52.370;9.748;2023-02-10T08:29:02;4.00;99.90
8888;DHT22;4480;52.370;9.748;2023-02-10T08:31:29;4.10;99.90
8888;DHT22;4480;52.370;9.748;2023-02-10T08:33:55;4.20;99.90
8888;DHT22;4480;52.370;9.748;2023-02-10T08:36:22;4.30;99.90
8888;DHT22;4480;52.370;9.748;2023-02-10T08:38:50;4.50;99.90
8888;DHT22;4480;52.370;9.748;2023-02-10T08:41:18;4.60;99.90
8888;DHT22;4480;52.370;9.748;2023-02-10T08:43:45;4.70;99.90
8888;DHT22;4480;52.370;9.748;2023-02-10T08:46:13;4.80;99.90
8888;DHT22;4480;52.370;9.748;2023-02-10T08:48:40;4.90;99.90
8888;DHT22;4480;52.370;9.748;2023-02-10T08:51:08;4.90;99.90
8888;DHT22;4480;52.370;9.748;2023-02-10T08:53:35;4.90;99.90
8888;DHT22;4480;52.370;9.748;2023-02-10T08:56:05;4.90;99.90
8888;DHT22;4480;52.370;9.748;2023-02-10T08:58:32;5.00;99.90
8888;DHT22;4480;52.370;9.748;2023-02-10T09:00:59;5.00;99.90
8888;DHT22;4480;52.370;9.748;2023-02-10T09:03:28;5.10;99.90
8888;DHT22;4480;52.370;9.748;2023-02-10T09:05:54;5.20;99.90
8888;DHT22;4480;52.370;9.748;2023-02-10T09:08:21;5.30;99.90
8888;DHT22;4480;52.370;9.748;2023-02-10T09:10:48;5.50;99.90
8888;DHT22;4480;52.370;9.748;2023-02-10T09:13:15;5.50;99.90
8888;DHT22;4480;52.370;9.748;2023-02-10T09:15:42;5.60;99.90
8888;DHT22;4480;52.370;9.748;2023-02-10T09:18:09;5.60;99.90
8888;DHT22;4480;52.370;9.748;2023-02-10T09:20:38;5.60;99.90
8888;DHT22;4480;52.370;9.748;2023-02-10T09:23:05;5.50;99.90
8888;DHT22;4480;52.370;9.748;2023-02-10T09:25:32;5.50;99.90
8888;DHT22;4480;52.370;9.748;2023-02-10T09:27:59;5.50;99.90
8888;DHT22;4480;52.370;9.748;2023-02-10T09:30:26;5.50;99.90
8888;DHT22;4480;52.370;9.748;2023-02-10T09:32:54;5.40;99.90
8888;DHT22;4480;52.370;9.748;2023-02-10T09:35:21;5.40;99.90
8888;DHT22;4480;52.370;9.748;2023-02-10T09:37:49;5.40;99.90
8888;DHT22;4480;52.370;9.748;2023-02-10T09:40:17;5.40;99.90
8888;DHT22;4480;52.370;9.748;2023-02-10T09:42:58;5.40;99.90
8888;DHT22;4480;52.370;9.748;2023-02-10T09:45:33;5.50;99.90
8888;DHT22;4480;52.370;9.748;2023-02-10T09:48:13;5.60;99.90
8888;DHT22;4480;52.370;9.748;2023-02-10T09:50:52;5.70;99.90
8888;DHT22;4480;52.370;9.748;2023-02-10T09:53:25;5.90;99.90
8888;DHT22;4480;52.370;9.748;2023-02-10T09:55:55;6.00;99.90
8888;DHT22;4480;52.370;9.748;2023-02-10T09:58:29;6.10;99.90
8888;DHT22;4480;52.370;9.748;2023-02-10T10:01:03;6.20;99.90
8888;DHT22;4480;52.370;9.748;2023-02-10T10:03:39;6.30;99.90
8888;DHT22;4480;52.370;9.748;2023-02-10T10:06:15;6.30;99.90
8888;DHT22;4480;52.370;9.748;2023-02-10T10:08:59;6.40;99.90
8888;DHT22;4480;52.370;9.748;2023-02-10T10:11:35;6.40;99.90
8888;DHT22;4480;52.370;9.748;2023-02-10T10:14:02;6.40;99.90
8888;DHT22;4480;52.370;9.748;2023-02-10T10:16:43;6.40;99.90
8888;DHT22;4480;52.370;9.748;2023-02-10T10:19:20;6.40;99.90
8888;DHT22;4480;52.370;9.748;2023-02-10T10:21:55;6.40;99.90
8888;DHT22;4480;52.370;9.748;2023-02-10T10:24:38;6.40;99.90
8888;DHT22;4480;52.370;9.748;2023-02-10T10:27:18;6.50;99.90
8888;DHT22;4480;52.370;9.748;2023-02-10T10:29:51;6.50;99.90
8888;DHT22;4480;52.370;9.748;2023-02-10T10:32:29;6.60;99.90
8888;DHT22;4480;52.370;9.748;2023-02-10T10:34:58;6.60;99.90
8888;DHT22;4480;52.370;9.748;2023-02-10T10:37:27;6.60;99.90
8888;DHT22;4480;52.370;9.748;2023-02-10T10:39:57;6.50;99.90
8888;DHT22;4480;52.370;9.748;2023-02-10T10:42:28;6.50;99.90
8888;DHT22;4480;52.370;9.748;2023-02-10T10:45:06;6.40;99.90
8888;DHT22;4480;52.370;9.748;2023-02-10T10:47:39;6.40;99.90
8888;DHT22;4480;52.370;9.748;2023-02-10T10:50:14;6.40;99.90
8888;DHT22;4480;52.370;9.748;2023-02-10T10:52:41;6.40;99.90
8888;DHT22;4480;52.370;9.748;2023-02-10T10:55:14;6.60;99.90
8888;DHT22;4480;52.370;9.748;2023-02-10T10:57:42;6.60;99.90
8888;DHT22;4480;52.370;9.748;2023-02-10T11:00:17;6.70;99.90
8888;DHT22;4480;52.370;9.748;2023-02-10T11:02:57;6.80;99.90
8888;DHT22;4480;52.370;9.748;2023-02-10T11:05:28;6.80;99.90
8888;DHT22;4480;52.370;9.748;2023-02-10T11:07:56;6.80;99.90
8888;DHT22;4480;52.370;9.748;2023-02-10T11:10:28;6.80;99.90
8888;DHT22;4480;52.370;9.748;2023-02-10T11:12:57;6.80;99.90
8888;DHT22;4480;52.370;9.748;2023-02-10T11:15:33;6.80;99.90
8888;DHT22;4480;52.370;9.748;2023-02-10T11:18:02;6.80;99.90
8888;DHT22;4480;52.370;9.748;2023-02-10T11:20:30;6.80;99.90
8888;DHT22;4480;52.370;9.748;2023-02-10T11:22:58;6.80;99.90
8888;DHT22;4480;52.370;9.748;2023-02-10T11:25:29;6.80;99.90
8888;DHT22;4480;52.370;9.748;2023-02-10T11:27:57;6.80;99.90
8888;DHT22;4480;52.370;9.748;2023-02-10T11:30:26;6.80;99.90
8888;DHT22;4480;52.370;9.748;2023-02-10T11:32:53;6.90;99.90
8888;DHT22;4480;52.370;9.748;2023-02-10T11:35:20;6.90;99.90
8888;DHT22;4480;52.370;9.748;2023-02-10T11:37:53;6.90;99.90
8888;DHT22;4480;52.370;9.748;2023-02-10T11:40:23;6.90;99.90
8888;DHT22;4480;52.370;9.748;2023-02-10T11:42:53;6.90;99.90
8888;DHT22;4480;52.370;9.748;2023-02-10T11:45:23;7.00;99.90
8888;DHT22;4480;52.370;9.748;2023-02-10T11:48:00;7.10;99.90
8888;DHT22;4480;52.370;9.748;2023-02-10T11:50:30;7.10;99.90
8888;DHT22;4480;52.370;9.748;2023-02-10T11:52:57;7.20;99.90
8888;DHT22;4480;52.370;9.748;2023-02-10T11:55:30;7.20;99.90
8888;DHT22;4480;52.370;9.748;2023-02-10T11:58:17;7.20;99.70
8888;DHT22;4480;52.370;9.748;2023-02-10T12:01:09;7.20;99.50
8888;DHT22;4480;52.370;9.748;2023-02-10T12:03:46;7.20;99.40
8888;DHT22;4480;52.370;9.748;2023-02-10T12:06:22;7.10;99.30
8888;DHT22;4480;52.370;9.748;2023-02-10T12:08:56;7.10;99.30
8888;DHT22;4480;52.370;9.748;2023-02-10T12:11:30;7.10;99.30
8888;DHT22;4480;52.370;9.748;2023-02-10T12:14:09;7.20;99.20
8888;DHT22;4480;52.370;9.748;2023-02-10T12:16:48;7.20;99.10
8888;DHT22;4480;52.370;9.748;2023-02-10T12:19:25;7.20;98.90
8888;DHT22;4480;52.370;9.748;2023-02-10T12:22:04;7.20;98.50
8888;DHT22;4480;52.370;9.748;2023-02-10T12:24:46;7.20;98.60
8888;DHT22;4480;52.370;9.748;2023-02-10T12:27:20;7.20;98.50
8888;DHT22;4480;52.370;9.748;2023-02-10T12:29:55;7.20;98.40
8888;DHT22;4480;52.370;9.748;2023-02-10T12:32:31;7.30;98.70
8888;DHT22;4480;52.370;9.748;2023-02-10T12:35:19;7.30;98.30
8888;DHT22;4480;52.370;9.748;2023-02-10T12:37:56;7.40;97.90
8888;DHT22;4480;52.370;9.748;2023-02-10T12:40:42;7.40;97.70
8888;DHT22;4480;52.370;9.748;2023-02-10T12:43:24;7.40;97.40
8888;DHT22;4480;52.370;9.748;2023-02-10T12:45:59;7.30;97.10
8888;DHT22;4480;52.370;9.748;2023-02-10T12:48:35;7.30;97.40
8888;DHT22;4480;52.370;9.748;2023-02-10T12:51:27;7.30;97.40
8888;DHT22;4480;52.370;9.748;2023-02-10T12:54:02;7.40;97.30
8888;DHT22;4480;52.370;9.748;2023-02-10T12:56:34;7.60;96.90
8888;DHT22;4480;52.370;9.748;2023-02-10T12:59:07;7.60;96.60
8888;DHT22;4480;52.370;9.748;2023-02-10T13:01:42;7.70;96.40
8888;DHT22;4480;52.370;9.748;2023-02-10T13:04:16;7.80;96.00
8888;DHT22;4480;52.370;9.748;2023-02-10T13:06:47;7.80;95.50
8888;DHT22;4480;52.370;9.748;2023-02-10T13:09:21;7.80;95.50
8888;DHT22;4480;52.370;9.748;2023-02-10T13:12:06;7.80;95.60
8888;DHT22;4480;52.370;9.748;2023-02-10T13:14:34;7.80;95.40
8888;DHT22;4480;52.370;9.748;2023-02-10T13:17:03;7.70;95.20
8888;DHT22;4480;52.370;9.748;2023-02-10T13:19:39;7.70;95.40
8888;DHT22;4480;52.370;9.748;2023-02-10T13:22:16;7.60;95.40
8888;DHT22;4480;52.370;9.748;2023-02-10T13:24:50;7.50;95.70
8888;DHT22;4480;52.370;9.748;2023-02-10T13:27:30;7.50;95.60
8888;DHT22;4480;52.370;9.748;2023-02-10T13:30:09;7.40;95.70
8888;DHT22;4480;52.370;9.748;2023-02-10T13:33:00;7.30;95.80
8888;DHT22;4480;52.370;9.748;2023-02-10T13:35:29;7.20;95.90
8888;DHT22;4480;52.370;9.748;2023-02-10T13:37:59;7.20;96.10
8888;DHT22;4480;52.370;9.748;2023-02-10T13:40:45;7.10;96.20
8888;DHT22;4480;52.370;9.748;2023-02-10T13:43:24;7.00;96.30
8888;DHT22;4480;52.370;9.748;2023-02-10T13:45:53;7.00;96.40
8888;DHT22;4480;52.370;9.748;2023-02-10T13:48:24;6.90;96.90
8888;DHT22;4480;52.370;9.748;2023-02-10T13:50:57;6.90;96.70
8888;DHT22;4480;52.370;9.748;2023-02-10T13:53:38;6.90;96.80
8888;DHT22;4480;52.370;9.748;2023-02-10T13:56:13;6.90;97.00
8888;DHT22;4480;52.370;9.748;2023-02-10T13:58:50;6.80;97.00
8888;DHT22;4480;52.370;9.748;2023-02-10T14:01:33;6.80;97.00
8888;DHT22;4480;52.370;9.748;2023-02-10T14:04:02;6.80;97.10
8888;DHT22;4480;52.370;9.748;2023-02-10T14:06:34;6.80;97.10
8888;DHT22;4480;52.370;9.748;2023-02-10T14:09:04;6.80;97.00
8888;DHT22;4480;52.370;9.748;2023-02-10T14:11:39;6.80;97.00
8888;DHT22;4480;52.370;9.748;2023-02-10T14:14:18;6.80;97.10
8888;DHT22;4480;52.370;9.748;2023-02-10T14:16:47;6.70;97.00
8888;DHT22;4480;52.370;9.748;2023-02-10T14:19:28;6.70;97.10
8888;DHT22;4480;52.370;9.748;2023-02-10T14:21:56;6.70;97.20
8888;DHT22;4480;52.370;9.748;2023-02-10T14:24:25;6.70;97.30
8888;DHT22;4480;52.370;9.748;2023-02-10T14:26:55;6.60;97.60
8888;DHT22;4480;52.370;9.748;2023-02-10T14:29:23;6.60;97.40
8888;DHT22;4480;52.370;9.748;2023-02-10T14:31:53;6.60;97.50
8888;DHT22;4480;52.370;9.748;2023-02-10T14:34:25;6.60;97.40
8888;DHT22;4480;52.370;9.748;2023-02-10T14:36:52;6.60;97.40
8888;DHT22;4480;52.370;9.748;2023-02-10T14:39:21;6.60;97.40
8888;DHT22;4480;52.370;9.748;2023-02-10T14:41:49;6.70;97.40
8888;DHT22;4480;52.370;9.748;2023-02-10T14:44:25;6.70;97.20
8888;DHT22;4480;52.370;9.748;2023-02-10T14:46:53;6.70;97.00
8888;DHT22;4480;52.370;9.748;2023-02-10T14:49:23;6.70;97.00
8888;DHT22;4480;52.370;9.748;2023-02-10T14:51:50;6.70;96.80
8888;DHT22;4480;52.370;9.748;2023-02-10T14:54:20;6.70;96.90
8888;DHT22;4480;52.370;9.748;2023-02-10T14:56:52;6.70;96.60
8888;DHT22;4480;52.370;9.748;2023-02-10T14:59:21;6.70;96.40
8888;DHT22;4480;52.370;9.748;2023-02-10T15:01:49;6.80;96.50
8888;DHT22;4480;52.370;9.748;2023-02-10T15:04:17;6.80;96.10
8888;DHT22;4480;52.370;9.748;2023-02-10T15:06:46;6.80;95.40
8888;DHT22;4480;52.370;9.748;2023-02-10T15:09:16;6.70;95.50
8888;DHT22;4480;52.370;9.748;2023-02-10T15:11:46;6.70;95.40
8888;DHT22;4480;52.370;9.748;2023-02-10T15:14:34;6.70;95.60
8888;DHT22;4480;52.370;9.748;2023-02-10T15:17:06;6.70;95.00
8888;DHT22;4480;52.370;9.748;2023-02-10T15:19:35;6.70;94.90
8888;DHT22;4480;52.370;9.748;2023-02-10T15:22:32;6.60;94.40
8888;DHT22;4480;52.370;9.748;2023-02-10T15:25:27;6.60;94.20
8888;DHT22;4480;52.370;9.748;2023-02-10T15:27:54;6.60;94.20
8888;DHT22;4480;52.370;9.748;2023-02-10T15:30:24;6.60;94.10
8888;DHT22;4480;52.370;9.748;2023-02-10T15:32:53;6.50;93.90
8888;DHT22;4480;52.370;9.748;2023-02-10T15:35:21;6.50;93.80
8888;DHT22;4480;52.370;9.748;2023-02-10T15:37:50;6.50;93.80
8888;DHT22;4480;52.370;9.748;2023-02-10T15:40:21;6.40;93.80
8888;DHT22;4480;52.370;9.748;2023-02-10T15:42:55;6.40;93.60
8888;DHT22;4480;52.370;9.748;2023-02-10T15:45:24;6.40;94.00
8888;DHT22;4480;52.370;9.748;2023-02-10T15:47:59;6.30;93.70
8888;DHT22;4480;52.370;9.748;2023-02-10T15:50:27;6.30;93.50
8888;DHT22;4480;52.370;9.748;2023-02-10T15:52:57;6.20;93.50
8888;DHT22;4480;52.370;9.748;2023-02-10T15:55:29;6.20;93.60
8888;DHT22;4480;52.370;9.748;2023-02-10T15:57:56;6.10;93.60
8888;DHT22;4480;52.370;9.748;2023-02-10T16:00:25;6.10;93.70
8888;DHT22;4480;52.370;9.748;2023-02-10T16:02:53;6.00;93.80
8888;DHT22;4480;52.370;9.748;2023-02-10T16:05:21;5.90;93.80
8888;DHT22;4480;52.370;9.748;2023-02-10T16:07:49;5.90;94.00
8888;DHT22;4480;52.370;9.748;2023-02-10T16:10:19;5.80;94.10
8888;DHT22;4480;52.370;9.748;2023-02-10T16:12:47;5.80;94.20
8888;DHT22;4480;52.370;9.748;2023-02-10T16:15:14;5.70;94.30
8888;DHT22;4480;52.370;9.748;2023-02-10T16:17:44;5.70;94.50
8888;DHT22;4480;52.370;9.748;2023-02-10T16:20:16;5.60;94.60
8888;DHT22;4480;52.370;9.748;2023-02-10T16:22:45;5.50;94.70
8888;DHT22;4480;52.370;9.748;2023-02-10T16:27:41;5.40;95.00
8888;DHT22;4480;52.370;9.748;2023-02-10T16:30:13;5.40;95.20
8888;DHT22;4480;52.370;9.748;2023-02-10T16:32:40;5.40;95.50
8888;DHT22;4480;52.370;9.748;2023-02-10T16:35:07;5.30;95.60
8888;DHT22;4480;52.370;9.748;2023-02-10T16:37:34;5.40;95.70
8888;DHT22;4480;52.370;9.748;2023-02-10T16:40:01;5.30;95.60
8888;DHT22;4480;52.370;9.748;2023-02-10T16:42:28;5.30;95.60